Ithaca Tompkins Regional Airport
KITH : now visible

Airfield :











YOU CAN JOIN US ON...

 
LOGIN :

Register | Disclaimer

   EN    FR    IT 

 









Legend :    VFR   Marginal VFR   IFR   Intensive IFR   Very Intensive IFR
Visi :
Ceiling :
>= 8 km
>= 3000ft
5 to 8 km
1000 to 3000 ft
1500m to 5 km
500 to 1000 ft
800 to 1500m
200 to 500 ft
< 800m
< 200 ft
Symbols :   Thunderstorms  Fog  Heavy snow  Heavy precipitations  Wind > 20 kt






- Airport Elevation : 1099 ft
- IATA code : ITH


KITH - Ithaca Tompkins Regional

CURRENT METAR :
  • 211956Z 31010KT 8SM -SN OVC014 00/M02 A2980 RMK AO2 SLP100 P0000 T00001022

EXPIRED METARs :
  • 211856Z 33010G19KT 10SM -SN BR OVC014 00/M02 A2980 RMK AO2 RAB13E15B34E37UPB48E51SNE48B51 SLP101 P0000 T00001022
  • 211756Z 33013G18KT 9SM -SN BKN007 OVC012 01/M01 A2979 RMK AO2 SLP097 P0000 60000 T00061006 10011 21006 53007
  • 211735Z 32011KT 1 1/2SM R32/5000VP6000FT -SN BR OVC007 01/00 A2978 RMK AO2 P0000
  • 211656Z 30014KT 1/2SM R32/3500V4500FT SN BR OVC004 00/M01 A2978 RMK AO2 SLP095 P0000 T00001006

TAF KITH
Valid from the 21 at 19:00 until the 22 at 18:00 UTC


211901Z 2119/2218 32013G21KT 5SM -SHSN BR OVC016
FM220100 31011G19KT 6SM BR BKN040
FM220600 29012G22KT 2SM -SHSN BR BKN010 OVC015
FM221500 29019G30KT 5SM -SHSN BR BKN030
KZNY FIR / North America



MET'MAP, your aeronautical weather chart ! - Copyright ORBIFLY December 2007 - Disclaimer

ORBIFLY MET'MAP TEAM :

Programming & Development : Alexandra Zaïnal
Concept & original design : Baudouin d'Aumeries
Assistance for programming : Marc-Olivier Méhu
Technical & hardware support : Manuel Goepfert

Contact : metmap@orbifly.com




SOURCES & CREDITS :

   NOAA       Earth
Advisory